Aviation Digital Data Service (ADDS)

Output produced by METARs form (0220 UTC 30 March 2023)
found at http://aviationweather.gov/metar/data/
 
LIRZ 300150Z AUTO 28002KT 9999 OVC044/// 10/08 Q1026
TAF LIRZ 292300Z 3000/3024 VRB05KT 9999 SCT030 
     BECMG 3008/3010 22013KT 
     BECMG 3022/3024 VRB05KT